Reno (RNO/KRNO)

Information

Location
Reno, NV
Local Time
21:26 / 9:26 pm
GMT Time
05:26 / 5:26 am
Gates
Unassigned
No FAA reported delays
METAR KRNO 260455Z 36004KT 10SM FEW038 SCT050 BKN065 BKN130 M01/M05 A3000 RMK AO2 SLP173 MTN TOPS OBSCD VC SW-W SH VC SW-W T10061050 $
TAF KRNO 252320Z 2600/2624 VRB05KT P6SM VCSH SCT030 BKN050 FM260300 VRB03KT P6SM SCT050 FM261900 22012G20KT P6SM SCT030 BKN050 FM262200 24020G37KT P6SM SCT030 BKN040
  • No charts available